Time;durP1;ratioP1;P1;durP2;ratioP2;P2;SDS_P1;SDS_P2;PMS_P1;PMS_P2;Temp;Humidity;BMP_temperature;BMP_pressure;BME280_temperature;BME280_humidity;BME280_pressure;Samples;Min_cycle;Max_cycle;Signal;HPM_P1;HPM_P2
2022/05/03 00:02:08;;;;;;;16.67;14.97;;;10.50;99.90;;;;;;5035387;28;20243;-88
2022/05/03 00:04:48;;;;;;;20.77;17.88;;;10.60;99.90;;;;;;5034912;28;20440;-88
2022/05/03 00:07:21;;;;;;;16.77;15.03;;;10.70;99.90;;;;;;5035285;28;20249;-88
2022/05/03 00:10:02;;;;;;;21.00;15.80;;;10.70;99.90;;;;;;5035055;28;20246;-88
2022/05/03 00:13:02;;;;;;;19.40;16.57;;;10.60;99.90;;;;;;5035331;28;20208;-87
2022/05/03 00:15:35;;;;;;;17.37;15.33;;;10.50;99.90;;;;;;5035161;28;20677;-87
2022/05/03 00:18:09;;;;;;;20.20;16.00;;;10.30;99.90;;;;;;5034799;28;20215;-88
2022/05/03 00:20:47;;;;;;;17.67;15.97;;;10.30;99.90;;;;;;5035263;28;20230;-88
2022/05/03 00:23:18;;;;;;;18.00;16.07;;;10.20;99.90;;;;;;5035166;28;20191;-88
2022/05/03 00:26:18;;;;;;;17.20;15.20;;;10.20;99.90;;;;;;5034595;28;20231;-88
2022/05/03 00:28:53;;;;;;;18.90;16.90;;;10.30;99.90;;;;;;5034827;28;20463;-88
2022/05/03 00:31:24;;;;;;;18.23;15.43;;;10.10;99.90;;;;;;5034868;28;20214;-87
2022/05/03 00:33:59;;;;;;;19.00;15.90;;;10.00;99.90;;;;;;5035763;28;20207;-88
2022/05/03 00:36:27;;;;;;;18.23;16.40;;;10.00;99.90;;;;;;5036221;28;20195;-88
2022/05/03 00:38:55;;;;;;;18.83;16.87;;;10.10;99.90;;;;;;5040930;28;20228;-89
2022/05/03 00:41:34;;;;;;;20.17;16.03;;;10.10;99.90;;;;;;5042108;28;20238;-88
2022/05/03 00:47:06;;;;;;;21.37;17.27;;;10.00;99.90;;;;;;5033970;28;20203;-88
2022/05/03 00:49:45;;;;;;;19.03;16.77;;;9.90;99.90;;;;;;5034543;28;20273;-87
2022/05/03 00:52:24;;;;;;;18.90;16.53;;;10.00;99.90;;;;;;5034734;28;20241;-88
2022/05/03 00:55:19;;;;;;;21.90;17.60;;;10.00;99.90;;;;;;5034411;28;20210;-88
2022/05/03 00:58:04;;;;;;;21.27;16.67;;;10.10;99.90;;;;;;5032070;28;20223;-88
2022/05/03 01:00:47;;;;;;;17.80;15.60;;;10.00;99.90;;;;;;5034489;28;20202;-88
2022/05/03 01:03:22;;;;;;;20.37;17.20;;;9.90;99.90;;;;;;5034414;28;20268;-88
2022/05/03 01:06:05;;;;;;;19.00;17.00;;;9.90;99.90;;;;;;5034481;28;20233;-88
2022/05/03 01:08:47;;;;;;;19.30;16.33;;;9.90;99.90;;;;;;5034145;28;20234;-87
2022/05/03 01:11:23;;;;;;;19.57;16.37;;;9.80;99.90;;;;;;5033111;28;20227;-88
2022/05/03 01:14:00;;;;;;;25.07;16.07;;;9.90;99.90;;;;;;5034565;28;20612;-88
2022/05/03 01:16:35;;;;;;;21.03;16.93;;;10.00;99.90;;;;;;5034076;28;20214;-88
2022/05/03 01:19:09;;;;;;;21.35;19.25;;;9.80;99.90;;;;;;5033397;28;20474;-88
2022/05/03 01:22:02;;;;;;;19.20;17.13;;;9.80;99.90;;;;;;5033979;28;20256;-88
2022/05/03 01:24:45;;;;;;;19.40;16.27;;;9.80;99.90;;;;;;5034151;28;20231;-88
2022/05/03 01:27:42;;;;;;;18.53;16.37;;;9.80;99.90;;;;;;5033796;28;20635;-88
2022/05/03 01:30:11;;;;;;;20.70;17.40;;;9.80;99.90;;;;;;5031294;28;20254;-88
2022/05/03 01:32:43;;;;;;;18.63;16.53;;;9.70;99.90;;;;;;5034004;28;20218;-88
2022/05/03 01:35:14;;;;;;;19.90;17.80;;;9.70;99.90;;;;;;5033988;28;20191;-87
2022/05/03 01:38:07;;;;;;;19.50;17.50;;;9.80;99.90;;;;;;5033362;28;20647;-88
2022/05/03 01:40:59;;;;;;;21.57;17.17;;;9.70;99.90;;;;;;5028875;28;20203;-88
2022/05/03 01:43:51;;;;;;;22.05;19.83;;;9.60;99.90;;;;;;5037037;28;20431;-88
2022/05/03 01:46:25;;;;;;;22.20;17.83;;;9.60;99.90;;;;;;5038253;28;20655;-88
2022/05/03 01:52:31;;;;;;;20.03;17.93;;;9.50;99.90;;;;;;5037496;28;20226;-88
2022/05/03 01:55:20;;;;;;;19.53;16.80;;;9.40;99.90;;;;;;5037503;28;20256;-88
2022/05/03 01:58:06;;;;;;;19.37;17.03;;;9.50;99.90;;;;;;5050344;28;20202;-88
2022/05/03 02:00:36;;;;;;;19.27;16.77;;;9.50;99.90;;;;;;5057140;28;20249;-91
2022/05/03 02:03:16;;;;;;;24.13;19.47;;;9.40;99.90;;;;;;5057563;28;20297;-91
2022/05/03 02:06:02;;;;;;;22.00;17.80;;;9.30;99.90;;;;;;5057164;28;20203;-90
2022/05/03 02:08:44;;;;;;;26.05;23.55;;;9.20;99.90;;;;;;5056342;28;20436;-91
2022/05/03 02:11:41;;;;;;;23.07;20.57;;;9.30;99.90;;;;;;5057250;28;20253;-91
2022/05/03 02:17:01;;;;;;;23.97;21.00;;;9.30;99.90;;;;;;5057241;28;20201;-91
2022/05/03 02:19:47;;;;;;;24.70;21.00;;;9.20;99.90;;;;;;5056646;28;20237;-90
2022/05/03 02:22:54;;;;;;;23.23;20.17;;;9.20;99.90;;;;;;5057211;28;20211;-91
2022/05/03 02:25:36;;;;;;;25.90;21.47;;;9.20;99.90;;;;;;5047442;28;20206;-91
2022/05/03 02:28:17;;;;;;;24.13;21.27;;;9.00;99.90;;;;;;5064131;28;20202;-90
2022/05/03 02:30:52;;;;;;;23.33;20.83;;;8.90;99.90;;;;;;5062848;28;20107;-90
2022/05/03 02:33:27;;;;;;;24.63;21.23;;;8.90;99.90;;;;;;5057081;28;20254;-90
2022/05/03 02:35:58;;;;;;;27.93;21.73;;;8.80;99.90;;;;;;5056970;28;20207;-91
2022/05/03 02:38:37;;;;;;;27.63;22.10;;;8.70;99.90;;;;;;5057378;28;20213;-91
2022/05/03 02:41:04;;;;;;;31.40;22.87;;;8.70;99.90;;;;;;5056673;28;20195;-91
2022/05/03 02:43:32;;;;;;;25.87;21.80;;;8.70;99.90;;;;;;5056768;28;20199;-91
2022/05/03 02:46:22;;;;;;;25.07;21.57;;;8.70;99.90;;;;;;5056977;28;20203;-91
2022/05/03 02:49:01;;;;;;;24.10;21.67;;;8.80;99.90;;;;;;5056250;28;20203;-91
2022/05/03 02:51:40;;;;;;;28.00;22.70;;;8.90;99.90;;;;;;5055438;28;20284;-91
2022/05/03 02:54:19;;;;;;;28.33;22.10;;;8.90;99.90;;;;;;5056381;28;20244;-91
2022/05/03 02:56:55;;;;;;;24.63;21.50;;;9.00;99.90;;;;;;5055214;28;20206;-90
2022/05/03 03:01:47;;;;;;;27.00;23.90;;;8.90;99.90;;;;;;5056658;28;20203;-91
2022/05/03 03:02:28;;;;;;;26.97;22.40;;;8.80;99.90;;;;;;5056545;28;20198;-91
2022/05/03 03:05:06;;;;;;;27.60;22.63;;;8.70;99.90;;;;;;5056036;28;20198;-91
2022/05/03 03:07:53;;;;;;;26.57;22.23;;;8.70;99.90;;;;;;5056361;28;20676;-91
2022/05/03 03:10:32;;;;;;;28.87;22.87;;;8.70;99.90;;;;;;5056215;28;20250;-91
2022/05/03 03:13:06;;;;;;;28.63;22.00;;;8.60;99.90;;;;;;5056236;28;20208;-90
2022/05/03 03:15:39;;;;;;;26.70;22.87;;;8.50;99.90;;;;;;5055762;28;20669;-90
2022/05/03 03:18:12;;;;;;;30.53;24.43;;;8.30;99.90;;;;;;5055940;28;20222;-91
2022/05/03 03:20:45;;;;;;;26.53;22.33;;;8.30;99.90;;;;;;5055869;28;20210;-91
2022/05/03 03:23:18;;;;;;;27.37;22.93;;;8.40;99.90;;;;;;5056502;28;20217;-91
2022/05/03 03:25:48;;;;;;;29.67;25.33;;;8.40;99.90;;;;;;5056253;28;20224;-91
2022/05/03 03:28:22;;;;;;;29.93;23.43;;;8.40;99.90;;;;;;5055942;28;20202;-92
2022/05/03 03:30:53;;;;;;;30.93;24.00;;;8.50;99.90;;;;;;5055651;28;20280;-91
2022/05/03 03:33:26;;;;;;;31.43;24.87;;;8.40;99.90;;;;;;5055616;28;20642;-91
2022/05/03 03:35:57;;;;;;;29.57;24.23;;;8.40;99.90;;;;;;5054641;28;20206;-94
2022/05/03 03:38:33;;;;;;;29.87;23.53;;;8.30;99.90;;;;;;5055163;28;20206;-92
2022/05/03 03:41:05;;;;;;;28.23;25.07;;;8.30;99.90;;;;;;5055913;28;20285;-93
2022/05/03 03:43:32;;;;;;;30.43;24.77;;;8.40;99.90;;;;;;5055262;28;20653;-92
2022/05/03 03:45:59;;;;;;;33.53;29.65;;;8.40;99.90;;;;;;5054819;28;20441;-92
2022/05/03 03:48:28;;;;;;;33.40;25.80;;;8.40;99.90;;;;;;5055051;28;20206;-91
2022/05/03 03:50:59;;;;;;;30.07;26.03;;;8.40;99.90;;;;;;5055257;28;20215;-93
2022/05/03 03:53:31;;;;;;;34.30;26.37;;;8.30;99.90;;;;;;5055346;28;20198;-91
2022/05/03 03:56:04;;;;;;;32.27;26.50;;;8.40;99.90;;;;;;5055698;28;20218;-94
2022/05/03 03:58:32;;;;;;;34.73;26.80;;;8.40;99.90;;;;;;5055161;28;20201;-92
2022/05/03 04:01:05;;;;;;;34.23;26.90;;;8.40;99.90;;;;;;5055306;28;20195;-91
2022/05/03 04:03:36;;;;;;;35.00;29.00;;;8.40;99.90;;;;;;5055403;28;20202;-92
2022/05/03 04:06:09;;;;;;;38.03;28.00;;;8.30;99.90;;;;;;5054699;28;20226;-92
2022/05/03 04:08:39;;;;;;;35.60;27.93;;;8.30;99.90;;;;;;5055177;28;20210;-91
2022/05/03 04:11:16;;;;;;;39.53;29.53;;;8.20;99.90;;;;;;5055364;28;20226;-89
2022/05/03 04:13:44;;;;;;;37.87;28.87;;;8.10;99.90;;;;;;5058066;28;20202;-88
2022/05/03 04:16:12;;;;;;;36.77;29.23;;;8.00;99.90;;;;;;5058222;28;20217;-89
2022/05/03 04:18:47;;;;;;;34.43;28.67;;;8.00;99.90;;;;;;5055071;28;20669;-87
2022/05/03 04:21:20;;;;;;;39.97;30.40;;;8.10;99.90;;;;;;5054592;28;20213;-90
2022/05/03 04:23:51;;;;;;;42.10;29.63;;;8.10;99.90;;;;;;5054526;28;20264;-91
2022/05/03 04:26:18;;;;;;;37.43;29.97;;;8.10;99.90;;;;;;5054727;28;20203;-90
2022/05/03 04:28:47;;;;;;;37.13;30.50;;;8.20;99.90;;;;;;5054468;28;20201;-90
2022/05/03 04:31:16;;;;;;;41.57;31.33;;;8.10;99.90;;;;;;5053654;28;20236;-88
2022/05/03 04:33:45;;;;;;;39.17;31.50;;;8.10;99.90;;;;;;5054299;28;20211;-89
2022/05/03 04:36:17;;;;;;;43.40;32.07;;;8.30;99.90;;;;;;5054214;28;20273;-91
2022/05/03 04:38:44;;;;;;;45.77;33.60;;;8.40;99.90;;;;;;5054180;28;20216;-91
2022/05/03 04:41:15;;;;;;;49.93;35.03;;;8.50;99.90;;;;;;5054290;28;20217;-89
2022/05/03 04:43:48;;;;;;;49.10;35.27;;;8.50;99.90;;;;;;5054375;28;20223;-89
2022/05/03 04:46:15;;;;;;;43.23;32.70;;;8.40;99.90;;;;;;5054272;28;20209;-88
2022/05/03 04:48:43;;;;;;;42.80;32.03;;;8.40;99.90;;;;;;5054324;28;20205;-91
2022/05/03 04:51:17;;;;;;;39.60;31.80;;;8.40;99.90;;;;;;5053807;28;20325;-91
2022/05/03 04:53:47;;;;;;;44.83;32.43;;;8.40;99.90;;;;;;5054106;28;20218;-91
2022/05/03 04:56:19;;;;;;;43.50;33.50;;;8.30;99.90;;;;;;5053414;28;20209;-92
2022/05/03 04:58:51;;;;;;;44.00;34.45;;;8.20;99.90;;;;;;5053628;28;20429;-90
2022/05/03 05:01:19;;;;;;;43.87;34.37;;;8.30;99.90;;;;;;5050274;28;20195;-91
2022/05/03 05:03:52;;;;;;;48.20;34.50;;;8.30;99.90;;;;;;5053826;28;20666;-90
2022/05/03 05:06:22;;;;;;;44.63;33.17;;;8.30;99.90;;;;;;5053873;28;20206;-89
2022/05/03 05:08:50;;;;;;;47.37;32.73;;;8.30;99.90;;;;;;5053962;28;20197;-90
2022/05/03 05:11:21;;;;;;;46.47;34.00;;;8.20;99.90;;;;;;5054005;28;20589;-91
2022/05/03 05:13:48;;;;;;;43.70;33.50;;;8.20;99.90;;;;;;5054168;28;20209;-89
2022/05/03 05:16:16;;;;;;;44.70;32.77;;;8.20;99.90;;;;;;5053512;28;20203;-90
2022/05/03 05:18:42;;;;;;;43.27;33.57;;;8.20;99.90;;;;;;5053664;28;20205;-90
2022/05/03 05:21:12;;;;;;;40.97;33.33;;;8.20;99.90;;;;;;5053849;28;20206;-89
2022/05/03 05:23:40;;;;;;;48.30;37.08;;;8.40;99.90;;;;;;5053660;28;20429;-89
2022/05/03 05:26:09;;;;;;;43.57;34.37;;;8.30;99.90;;;;;;5054149;28;20210;-89
2022/05/03 05:28:37;;;;;;;46.87;33.37;;;8.50;99.90;;;;;;5053478;28;20210;-89
2022/05/03 05:31:05;;;;;;;43.97;33.80;;;8.50;99.90;;;;;;5053456;28;20217;-90
2022/05/03 05:33:34;;;;;;;44.87;32.90;;;8.50;99.90;;;;;;5053681;28;20191;-89
2022/05/03 05:36:01;;;;;;;45.20;33.37;;;8.60;99.90;;;;;;5053946;28;20214;-90
2022/05/03 05:38:29;;;;;;;48.63;34.87;;;8.60;99.90;;;;;;5053390;28;20203;-90
2022/05/03 05:41:12;;;;;;;42.17;34.07;;;8.70;99.90;;;;;;5053569;28;20200;-90
2022/05/03 05:43:42;;;;;;;47.23;33.53;;;8.70;99.90;;;;;;5053496;28;20210;-90
2022/05/03 05:46:10;;;;;;;40.13;31.57;;;8.70;99.90;;;;;;5053846;28;20293;-92
2022/05/03 05:48:39;;;;;;;46.20;38.20;;;8.80;99.90;;;;;;5053615;28;20448;-92
2022/05/03 05:51:11;;;;;;;52.43;34.50;;;8.80;99.90;;;;;;5050350;28;20253;-91
2022/05/03 05:53:43;;;;;;;51.60;32.47;;;8.90;99.90;;;;;;5053857;28;20232;-92
2022/05/03 05:56:11;;;;;;;51.50;33.13;;;8.90;99.90;;;;;;5052470;28;20575;-90
2022/05/03 05:58:46;;;;;;;52.13;32.97;;;8.90;99.90;;;;;;5053652;28;20210;-91
2022/05/03 06:01:13;;;;;;;42.37;31.80;;;9.00;99.90;;;;;;5053140;28;20212;-93
2022/05/03 06:03:42;;;;;;;40.33;30.97;;;9.20;99.90;;;;;;5055271;28;20693;-93
2022/05/03 06:06:09;;;;;;;46.27;31.40;;;9.30;99.90;;;;;;5053883;28;20248;-91
2022/05/03 06:08:42;;;;;;;41.40;30.07;;;9.30;99.90;;;;;;5053912;28;20229;-91
2022/05/03 06:11:17;;;;;;;40.83;29.90;;;9.30;99.90;;;;;;5053723;28;20239;-91
2022/05/03 06:13:45;;;;;;;43.60;36.05;;;9.50;99.90;;;;;;5052962;28;20437;-91
2022/05/03 06:16:19;;;;;;;36.53;29.77;;;9.60;99.90;;;;;;5052449;28;20195;-93
2022/05/03 06:18:45;;;;;;;34.63;30.00;;;9.60;99.90;;;;;;5053629;28;20240;-93
2022/05/03 06:21:13;;;;;;;36.83;28.23;;;9.70;99.90;;;;;;5053041;28;20191;-92
2022/05/03 06:23:40;;;;;;;30.87;25.27;;;9.90;99.90;;;;;;5052726;28;20222;-93
2022/05/03 06:26:09;;;;;;;33.57;25.87;;;10.00;99.90;;;;;;5053386;28;20277;-91
2022/05/03 06:28:36;;;;;;;30.30;25.33;;;9.90;99.90;;;;;;5056252;28;20187;-92
2022/05/03 06:31:04;;;;;;;32.27;23.90;;;9.90;99.90;;;;;;5056749;28;20214;-91
2022/05/03 06:33:31;;;;;;;32.93;24.23;;;10.10;99.90;;;;;;5057265;28;20190;-93
2022/05/03 06:35:59;;;;;;;31.70;23.67;;;10.30;99.90;;;;;;5058082;28;20211;-91
2022/05/03 06:38:25;;;;;;;30.60;25.73;;;10.40;99.90;;;;;;5058726;28;20854;-93
2022/05/03 06:40:52;;;;;;;28.77;22.90;;;10.40;99.90;;;;;;5064292;28;20202;-92
2022/05/03 06:43:20;;;;;;;28.23;21.13;;;10.50;99.90;;;;;;5061159;28;20213;-91
2022/05/03 06:45:48;;;;;;;27.17;20.00;;;10.60;99.90;;;;;;5061852;28;20211;-91
2022/05/03 06:48:16;;;;;;;24.10;17.80;;;10.60;99.90;;;;;;5059871;28;20202;-92
2022/05/03 06:50:44;;;;;;;25.63;19.63;;;10.70;99.90;;;;;;5056762;28;20198;-92
2022/05/03 06:53:16;;;;;;;23.77;18.83;;;10.80;99.90;;;;;;5055961;28;20273;-95
2022/05/03 06:55:44;;;;;;;22.67;18.83;;;10.90;99.90;;;;;;5056275;28;20213;-94
2022/05/03 06:58:11;;;;;;;32.23;20.80;;;10.90;99.90;;;;;;5053779;28;20206;-92
2022/05/03 07:00:38;;;;;;;27.40;20.80;;;11.00;99.90;;;;;;5056333;28;20668;-94
2022/05/03 07:03:06;;;;;;;26.75;23.80;;;11.20;99.90;;;;;;5055895;28;20441;-93
2022/05/03 07:05:37;;;;;;;30.10;21.50;;;11.30;99.90;;;;;;5056151;28;20191;-93
2022/05/03 07:08:08;;;;;;;28.73;21.47;;;11.40;99.90;;;;;;5056292;28;20198;-96
2022/05/03 07:10:41;;;;;;;24.53;19.77;;;11.50;99.90;;;;;;5056096;28;20580;-90
2022/05/03 07:13:15;;;;;;;22.87;18.00;;;11.70;99.90;;;;;;5056628;28;20221;-92
2022/05/03 07:15:43;;;;;;;20.60;14.63;;;11.80;99.90;;;;;;5056637;28;20565;-94
2022/05/03 07:23:44;;;;;;;20.87;13.73;;;12.10;99.90;;;;;;5055964;28;20189;-92
2022/05/03 07:26:14;;;;;;;15.30;13.70;;;12.10;99.90;;;;;;5056787;28;20226;-90
2022/05/03 07:28:42;;;;;;;17.47;13.83;;;12.20;99.90;;;;;;5062036;28;20209;-90
2022/05/03 07:31:11;;;;;;;17.03;13.07;;;12.30;99.90;;;;;;5058241;28;20201;-93
2022/05/03 07:33:44;;;;;;;14.40;12.40;;;12.20;99.90;;;;;;5055791;28;20190;-91
2022/05/03 07:36:16;;;;;;;15.17;12.73;;;12.30;99.90;;;;;;5056125;28;20195;-92
2022/05/03 07:38:45;;;;;;;13.53;12.07;;;12.40;99.90;;;;;;5055051;28;20241;-92
2022/05/03 07:41:13;;;;;;;17.17;12.83;;;12.70;99.90;;;;;;5055780;28;20297;-93
2022/05/03 07:43:46;;;;;;;15.33;13.13;;;12.70;99.90;;;;;;5055648;28;20207;-94
2022/05/03 07:46:19;;;;;;;15.00;13.33;;;12.80;99.90;;;;;;5055811;28;20200;-91
2022/05/03 07:48:52;;;;;;;16.93;13.03;;;12.90;99.90;;;;;;5055866;28;20197;-90
2022/05/03 07:51:34;;;;;;;13.63;12.23;;;12.90;99.90;;;;;;5055175;28;20228;-92
2022/05/03 07:54:04;;;;;;;13.87;12.00;;;13.00;99.90;;;;;;5055967;28;20231;-91
2022/05/03 07:56:50;;;;;;;14.73;12.07;;;13.10;99.90;;;;;;5051420;28;20211;-91
2022/05/03 07:59:25;;;;;;;14.47;12.83;;;13.20;99.90;;;;;;5056943;28;20203;-93
2022/05/03 08:01:54;;;;;;;14.73;12.83;;;13.20;99.90;;;;;;5053052;28;20203;-91
2022/05/03 08:04:23;;;;;;;16.53;13.53;;;13.20;99.90;;;;;;5052188;28;20210;-91
2022/05/03 08:06:52;;;;;;;13.30;11.87;;;13.40;99.90;;;;;;5055764;28;20204;-90
2022/05/03 08:09:19;;;;;;;15.33;13.70;;;13.50;99.90;;;;;;5055953;28;20204;-91
2022/05/03 08:11:46;;;;;;;16.90;12.83;;;13.50;99.90;;;;;;5065535;28;20218;-93
2022/05/03 08:14:16;;;;;;;25.23;12.40;;;13.50;99.90;;;;;;5055669;28;20220;-92
2022/05/03 08:16:47;;;;;;;17.00;12.93;;;13.60;99.90;;;;;;5052906;28;20559;-91
2022/05/03 08:19:14;;;;;;;15.27;12.70;;;13.70;99.90;;;;;;5053789;28;20209;-93
2022/05/03 08:21:44;;;;;;;17.03;13.87;;;13.60;99.90;;;;;;5055631;28;20199;-93
2022/05/03 08:24:12;;;;;;;17.57;12.03;;;13.70;99.90;;;;;;5050283;28;20645;-93
2022/05/03 08:26:39;;;;;;;18.40;12.40;;;13.70;99.90;;;;;;5061711;28;20204;-93
2022/05/03 08:29:08;;;;;;;17.83;13.17;;;13.90;99.90;;;;;;5063748;28;20208;-91
2022/05/03 08:31:41;;;;;;;15.47;11.53;;;14.10;99.90;;;;;;5060220;28;20265;-91
2022/05/03 08:34:11;;;;;;;20.50;13.80;;;14.20;99.90;;;;;;5062963;28;20209;-92
2022/05/03 08:36:38;;;;;;;15.57;13.00;;;14.30;99.90;;;;;;5067747;28;20226;-92
2022/05/03 08:42:07;;;;;;;16.10;12.80;;;14.50;99.90;;;;;;5023759;28;20695;-91
2022/05/03 08:44:35;;;;;;;17.20;13.10;;;14.50;99.90;;;;;;5054676;28;20198;-90
2022/05/03 08:47:04;;;;;;;13.73;12.33;;;14.70;99.90;;;;;;5061371;28;20638;-90
2022/05/03 08:49:40;;;;;;;14.87;12.93;;;14.70;99.90;;;;;;5064074;28;20216;-91
2022/05/03 08:52:16;;;;;;;15.40;12.50;;;14.40;99.90;;;;;;5064933;28;20229;-91
2022/05/03 08:54:45;;;;;;;15.90;13.40;;;14.60;99.90;;;;;;5069271;28;20226;-91
2022/05/03 08:57:14;;;;;;;14.67;13.10;;;14.60;99.90;;;;;;5061629;28;20205;-89
2022/05/03 08:59:44;;;;;;;17.37;13.80;;;14.70;99.90;;;;;;5062958;28;20202;-90
2022/05/03 09:02:12;;;;;;;13.87;12.43;;;14.70;99.90;;;;;;5058544;28;20210;-93
2022/05/03 09:05:10;;;;;;;16.83;12.47;;;14.60;99.90;;;;;;5058566;28;20561;-93
2022/05/03 09:07:39;;;;;;;14.27;12.50;;;14.80;99.90;;;;;;5058888;28;20211;-92
2022/05/03 09:10:26;;;;;;;15.53;12.57;;;14.90;99.90;;;;;;5055623;28;20191;-91
2022/05/03 09:13:13;;;;;;;16.20;14.07;;;14.80;99.90;;;;;;5049544;28;20217;-93
2022/05/03 09:15:42;;;;;;;14.73;12.10;;;14.80;99.90;;;;;;5055564;28;20253;-92
2022/05/03 09:18:20;;;;;;;11.33;10.13;;;14.90;99.90;;;;;;5051883;28;20191;-87
2022/05/03 09:23:50;;;;;;;14.03;12.33;;;15.30;99.90;;;;;;5054548;28;20332;-89
2022/05/03 09:26:22;;;;;;;13.98;12.52;;;15.50;99.90;;;;;;5054554;28;20445;-90
2022/05/03 09:28:55;;;;;;;15.47;11.67;;;15.40;99.90;;;;;;5055404;28;20195;-91
2022/05/03 09:31:29;;;;;;;10.73;9.63;;;15.60;99.90;;;;;;5054640;28;20266;-90
2022/05/03 09:34:18;;;;;;;14.17;9.70;;;15.40;99.90;;;;;;5055044;28;20237;-91
2022/05/03 09:36:48;;;;;;;18.10;9.20;;;15.50;99.90;;;;;;5059451;28;20221;-90
2022/05/03 09:39:25;;;;;;;9.63;8.73;;;15.70;99.90;;;;;;5058395;28;20543;-90
2022/05/03 09:42:08;;;;;;;10.03;8.13;;;15.90;99.90;;;;;;5055277;28;20573;-90
2022/05/03 09:44:37;;;;;;;9.80;8.77;;;15.90;99.90;;;;;;5054724;28;20203;-89
2022/05/03 09:47:08;;;;;;;12.27;8.27;;;15.80;99.90;;;;;;5055374;28;20298;-91
2022/05/03 09:49:37;;;;;;;10.43;8.50;;;15.70;99.90;;;;;;5054317;28;20248;-91
2022/05/03 09:52:05;;;;;;;10.73;8.83;;;15.80;99.90;;;;;;5056190;28;20219;-89
2022/05/03 09:54:47;;;;;;;13.30;9.77;;;15.80;99.90;;;;;;5054787;28;20234;-92
2022/05/03 09:57:21;;;;;;;8.70;7.23;;;15.90;99.90;;;;;;5053508;28;20325;-89
2022/05/03 09:59:49;;;;;;;9.83;7.50;;;16.10;99.90;;;;;;5054148;28;20257;-90
2022/05/03 10:02:18;;;;;;;14.13;8.80;;;16.30;99.90;;;;;;5053624;28;20193;-86
2022/05/03 10:04:45;;;;;;;9.77;8.87;;;16.70;99.90;;;;;;5057179;28;20210;-85
2022/05/03 10:07:12;;;;;;;11.20;8.03;;;16.60;99.90;;;;;;5057270;28;20203;-86
2022/05/03 10:09:40;;;;;;;9.40;8.50;;;16.60;99.90;;;;;;5057054;28;20217;-86
2022/05/03 10:12:09;;;;;;;9.07;7.70;;;16.50;99.90;;;;;;5059801;28;20265;-83
2022/05/03 10:14:36;;;;;;;10.47;9.33;;;16.90;99.90;;;;;;5061925;28;20195;-85
2022/05/03 10:22:53;;;;;;;10.40;9.33;;;17.20;99.90;;;;;;5015814;28;20206;-86
2022/05/03 10:25:29;;;;;;;9.17;8.30;;;16.80;99.90;;;;;;5015116;28;20727;-86
2022/05/03 10:27:57;;;;;;;9.73;8.67;;;16.80;99.90;;;;;;5036173;28;20206;-86
2022/05/03 10:30:28;;;;;;;8.70;7.90;;;16.70;99.90;;;;;;5056734;28;20251;-85
2022/05/03 10:33:32;;;;;;;8.63;7.90;;;16.40;99.90;;;;;;5056547;28;20236;-86
2022/05/03 10:36:02;;;;;;;11.13;8.20;;;16.50;99.90;;;;;;5056827;28;20208;-87
2022/05/03 10:38:39;;;;;;;13.63;8.30;;;16.70;99.90;;;;;;5056459;28;20195;-86
2022/05/03 10:41:08;;;;;;;9.85;8.85;;;17.00;99.90;;;;;;5055972;28;20444;-85
2022/05/03 10:43:37;;;;;;;10.43;9.43;;;17.50;99.90;;;;;;5056401;28;20213;-86
2022/05/03 10:46:10;;;;;;;12.33;9.23;;;17.40;99.90;;;;;;5056347;28;20261;-86
2022/05/03 10:48:41;;;;;;;9.37;8.37;;;17.30;99.90;;;;;;5060126;28;20225;-86
2022/05/03 10:51:11;;;;;;;9.83;8.93;;;17.40;99.90;;;;;;5056612;28;20191;-86
2022/05/03 10:53:40;;;;;;;10.37;9.37;;;17.70;99.90;;;;;;5056207;28;20307;-85
2022/05/03 10:56:19;;;;;;;9.30;8.40;;;17.50;99.90;;;;;;5056698;28;20206;-86
2022/05/03 10:58:48;;;;;;;10.57;9.17;;;17.60;99.90;;;;;;5056594;28;20198;-86
2022/05/03 11:01:19;;;;;;;10.20;8.77;;;17.60;99.90;;;;;;5056046;28;20662;-86
2022/05/03 11:04:10;;;;;;;11.40;9.83;;;17.40;99.90;;;;;;5056080;28;20212;-86
2022/05/03 11:06:49;;;;;;;11.20;8.53;;;17.30;99.90;;;;;;5055671;28;20799;-85
2022/05/03 11:09:26;;;;;;;8.80;7.90;;;17.70;99.90;;;;;;5056053;28;20210;-86
2022/05/03 11:11:54;;;;;;;8.20;7.50;;;17.90;99.90;;;;;;5055804;28;20202;-89
2022/05/03 11:14:45;;;;;;;8.37;7.43;;;17.80;99.90;;;;;;5055668;28;20235;-82
2022/05/03 11:17:13;;;;;;;9.60;7.67;;;17.70;99.90;;;;;;5055225;28;20200;-86
2022/05/03 11:19:48;;;;;;;8.57;7.77;;;17.80;99.90;;;;;;5055203;28;20684;-86
2022/05/03 11:22:18;;;;;;;8.90;8.00;;;17.70;99.90;;;;;;5055316;28;20190;-86
2022/05/03 11:24:46;;;;;;;7.87;6.73;;;17.60;99.90;;;;;;5055800;28;20646;-86
2022/05/03 11:27:15;;;;;;;8.50;7.03;;;17.70;99.90;;;;;;5055065;28;20206;-86
2022/05/03 11:29:45;;;;;;;8.33;6.93;;;18.10;99.90;;;;;;5056359;28;20567;-84
2022/05/03 11:32:11;;;;;;;7.50;6.80;;;18.20;99.90;;;;;;5054758;28;20610;-83
2022/05/03 11:34:39;;;;;;;11.57;7.00;;;18.20;99.90;;;;;;5055008;28;20237;-83
2022/05/03 11:37:07;;;;;;;9.47;7.00;;;18.10;99.90;;;;;;5054976;28;20256;-81
2022/05/03 11:39:36;;;;;;;17.30;7.87;;;17.90;99.90;;;;;;5055064;28;20250;-84
2022/05/03 11:42:06;;;;;;;7.77;7.07;;;18.00;99.90;;;;;;5055431;28;20260;-82
2022/05/03 11:44:33;;;;;;;7.13;6.53;;;17.80;99.90;;;;;;5055019;28;20202;-86
2022/05/03 11:47:03;;;;;;;8.00;7.27;;;18.00;99.90;;;;;;5054404;28;20282;-86
2022/05/03 11:49:32;;;;;;;7.63;6.93;;;18.30;99.90;;;;;;5054586;28;20207;-85
2022/05/03 11:57:42;;;;;;;7.97;7.27;;;18.60;99.90;;;;;;5038987;28;20288;-83
2022/05/03 12:00:12;;;;;;;7.80;7.10;;;18.60;99.90;;;;;;5044938;28;20203;-84
2022/05/03 12:02:42;;;;;;;7.50;6.80;;;18.70;99.90;;;;;;5045759;28;20192;-84
2022/05/03 12:05:17;;;;;;;6.93;6.33;;;18.80;99.90;;;;;;5038933;28;20219;-84
2022/05/03 12:07:46;;;;;;;7.07;6.57;;;18.60;99.90;;;;;;5045306;28;20210;-81
2022/05/03 12:10:24;;;;;;;7.30;6.67;;;18.30;99.90;;;;;;5055409;28;20283;-85
2022/05/03 12:13:08;;;;;;;7.57;6.87;;;18.50;99.90;;;;;;5054534;28;20206;-84
2022/05/03 12:15:37;;;;;;;11.03;7.20;;;18.60;99.90;;;;;;5054858;28;20195;-83
2022/05/03 12:18:12;;;;;;;7.30;6.70;;;18.90;99.90;;;;;;5072502;28;20244;-79
2022/05/03 12:20:45;;;;;;;7.40;6.70;;;18.70;99.90;;;;;;5053767;28;20215;-83
2022/05/03 12:23:16;;;;;;;9.30;8.47;;;18.80;99.90;;;;;;5065081;28;20198;-84
2022/05/03 12:25:48;;;;;;;9.87;8.90;;;18.60;99.90;;;;;;5046094;28;20205;-87
2022/05/03 12:28:19;;;;;;;12.10;8.20;;;18.40;99.90;;;;;;5039502;28;20209;-86
2022/05/03 12:30:54;;;;;;;9.50;8.40;;;18.40;99.90;;;;;;5059811;28;20229;-83
2022/05/03 12:33:21;;;;;;;9.90;9.03;;;18.40;99.90;;;;;;5070822;28;20229;-82
2022/05/03 12:35:48;;;;;;;9.83;8.77;;;18.30;99.90;;;;;;5055665;28;20202;-84
2022/05/03 12:38:17;;;;;;;9.77;8.77;;;17.90;99.90;;;;;;5054136;28;20282;-83
2022/05/03 12:40:58;;;;;;;8.97;8.17;;;18.10;99.90;;;;;;5072231;28;20667;-84
2022/05/03 12:43:27;;;;;;;11.30;7.87;;;18.10;99.90;;;;;;5070764;28;20209;-84
2022/05/03 12:46:01;;;;;;;8.67;7.87;;;18.00;99.90;;;;;;5072102;28;20207;-85
2022/05/03 12:48:28;;;;;;;10.60;9.20;;;18.20;99.90;;;;;;5067416;28;20662;-86
2022/05/03 12:50:56;;;;;;;8.90;8.10;;;18.50;99.90;;;;;;5060921;28;20206;-85
2022/05/03 12:53:26;;;;;;;9.63;8.70;;;18.50;99.90;;;;;;5055534;28;20231;-84
2022/05/03 12:55:56;;;;;;;10.83;9.63;;;18.50;99.90;;;;;;5066139;28;20209;-84
2022/05/03 12:58:22;;;;;;;10.77;9.70;;;18.50;99.90;;;;;;5069614;28;20216;-86
2022/05/03 13:00:50;;;;;;;10.57;9.77;;;18.50;99.90;;;;;;5063247;28;20611;-86
2022/05/03 13:03:17;;;;;;;11.47;10.37;;;18.50;99.90;;;;;;5072157;28;20217;-86
2022/05/03 13:05:44;;;;;;;11.73;10.67;;;18.10;99.90;;;;;;5071059;28;20210;-85
2022/05/03 13:08:11;;;;;;;11.60;10.57;;;18.10;99.90;;;;;;5070838;28;20424;-85
2022/05/03 13:10:39;;;;;;;10.83;9.83;;;18.20;99.90;;;;;;5071574;28;20563;-84
2022/05/03 13:13:08;;;;;;;10.97;9.83;;;18.20;99.90;;;;;;5070909;28;20198;-85
2022/05/03 13:15:35;;;;;;;10.23;9.23;;;18.40;99.90;;;;;;5071471;28;20207;-85
2022/05/03 13:18:02;;;;;;;12.63;11.40;;;18.10;99.90;;;;;;5071818;28;20202;-84
2022/05/03 13:20:29;;;;;;;9.33;8.53;;;18.00;99.90;;;;;;5055346;28;20213;-85
2022/05/03 13:22:56;;;;;;;10.87;9.77;;;18.00;99.90;;;;;;5071851;28;20209;-84
2022/05/03 13:25:24;;;;;;;10.40;9.30;;;18.30;99.90;;;;;;5071692;28;20651;-84
2022/05/03 13:27:53;;;;;;;9.57;8.67;;;18.40;99.90;;;;;;5057804;28;20212;-84
2022/05/03 13:30:22;;;;;;;10.43;9.40;;;18.50;99.90;;;;;;5071351;28;20234;-84
2022/05/03 13:32:48;;;;;;;11.73;10.63;;;18.50;99.90;;;;;;5062108;28;20429;-84
2022/05/03 13:40:28;;;;;;;15.50;9.73;;;18.60;99.90;;;;;;5071355;28;20224;-85
2022/05/03 13:40:47;;;;;;;9.43;8.60;;;18.90;99.90;;;;;;5063375;28;20208;-87